Airfield :
LOGIN :

Register | Disclaimer

   EN    FR    IT 

 










Legend :    VFR   Marginal VFR   IFR   Intensive IFR   Very Intensive IFR
Visi :
Ceiling :
>= 8 km
>= 3000ft
5 to 8 km
1000 to 3000 ft
1500m to 5 km
500 to 1000 ft
800 to 1500m
200 to 500 ft
< 800m
< 200 ft
Symbols :   Thunderstorms  Fog  Heavy snow  Heavy precipitations  Wind > 20 kt
SIGMETs :     Misc.  Thunderstorms  Icing  Turbulence  Mountain Waves  Volcanic Ashes







- Airport Elevation : 1161 ft
- IATA code : RJL


LELO - Logroño-Agoncillo

CURRENT METAR :
  • 152300Z AUTO 14002KT 9999 NCD 02/00 Q1029

EXPIRED METARs :
  • 152230Z AUTO 13002KT 9999 NCD 02/00 Q1029
  • 152200Z VRB01KT CAVOK 02/00 Q1029
  • 152130Z 19002KT CAVOK 03/01 Q1029
  • 152100Z 00000KT CAVOK 03/01 Q1029
  • 152030Z VRB01KT CAVOK 03/01 Q1028

TAF TAF LELO
Valid from the 15 at 18:00 until the 16 at 03:00 UTC


151700Z 1518/1603 VRB05KT CAVOK
No reported NOTAMs for that airfield.
1 SIGMET reported for the Madrid FIR (LECM) :
 
Severe turbulence
LECM SIGMET 2 VALID 152200/152345 LEVA
LECM MADRID FIR/UIR SEV TURB FCST W OF LINE N4459 W01024 - N4235 W01143 FL200/360 MOV E 15KT WKN=



MET'MAP, your aeronautical weather chart ! - Copyright ORBIFLY December 2007 - Disclaimer

ORBIFLY MET'MAP TEAM :

Programming & Development : Alexandra Zaïnal
Concept & Development : Baudouin d'Aumeries
Co-Development & Prog : Marc-Olivier Méhu
Technical & hardware support : Manuel Goepfert

Contact : metmap@orbifly.com




SOURCES & CREDITS :

   NOAA